createdAt,value
2019-05-28T00:00:10.187Z,0.00
2019-05-28T00:01:10.173Z,0.00
2019-05-28T00:02:10.172Z,0.00
2019-05-28T00:03:10.151Z,0.00
2019-05-28T00:04:10.230Z,0.00
2019-05-28T00:05:10.131Z,0.00
2019-05-28T00:06:10.123Z,0.00
2019-05-28T00:07:10.105Z,0.00
2019-05-28T00:08:10.109Z,0.00
2019-05-28T00:09:10.175Z,0.00
2019-05-28T00:10:10.083Z,0.00
2019-05-28T00:11:10.063Z,0.00
2019-05-28T00:12:10.058Z,0.00
2019-05-28T00:13:10.038Z,0.00
2019-05-28T00:14:10.113Z,0.00
2019-05-28T00:15:10.017Z,0.00
2019-05-28T00:16:10.327Z,0.00
2019-05-28T00:17:10.040Z,0.00
2019-05-28T00:18:09.986Z,0.00
2019-05-28T00:19:09.983Z,0.00
2019-05-28T00:20:09.962Z,0.00
2019-05-28T00:21:09.950Z,0.00
2019-05-28T00:22:09.937Z,0.00
2019-05-28T00:23:10.019Z,0.00
2019-05-28T00:24:09.914Z,0.00
2019-05-28T00:25:09.918Z,0.00
2019-05-28T00:26:09.897Z,0.00
2019-05-28T00:27:09.881Z,0.00
2019-05-28T00:28:09.870Z,0.00
2019-05-28T00:29:09.873Z,0.00
2019-05-28T00:30:19.956Z,0.00
2019-05-28T00:31:10.843Z,0.00
2019-05-28T00:32:09.825Z,0.00
2019-05-28T00:33:09.818Z,0.00
2019-05-28T00:34:09.801Z,0.00
2019-05-28T00:35:09.792Z,0.00
2019-05-28T00:36:09.851Z,0.00
2019-05-28T00:37:09.767Z,0.00
2019-05-28T00:38:09.774Z,0.00
2019-05-28T00:39:09.752Z,0.00
2019-05-28T00:40:09.736Z,0.00
2019-05-28T00:41:09.841Z,0.00
2019-05-28T00:42:09.711Z,0.00
2019-05-28T00:43:09.705Z,0.00
2019-05-28T00:44:09.692Z,0.00
2019-05-28T00:45:09.680Z,0.00
2019-05-28T00:46:09.740Z,0.00
2019-05-28T00:47:09.657Z,0.00
2019-05-28T00:48:09.643Z,0.00
2019-05-28T00:49:09.638Z,0.00
2019-05-28T00:50:09.626Z,0.00
2019-05-28T00:51:09.616Z,0.00
2019-05-28T00:52:09.691Z,0.00
2019-05-28T00:53:09.589Z,0.00
2019-05-28T00:54:09.593Z,0.00
2019-05-28T00:55:09.566Z,0.00
2019-05-28T00:56:09.675Z,0.00
2019-05-28T00:57:09.547Z,0.00
2019-05-28T00:58:09.536Z,0.00
2019-05-28T00:59:09.526Z,0.00
2019-05-28T01:00:09.513Z,0.00
2019-05-28T01:01:09.510Z,0.00
2019-05-28T01:02:09.609Z,0.00
2019-05-28T01:03:09.486Z,0.00
2019-05-28T01:04:09.471Z,0.00
2019-05-28T01:05:09.461Z,0.00
2019-05-28T01:06:09.452Z,0.00
2019-05-28T01:07:09.529Z,0.00
2019-05-28T01:08:09.517Z,0.00
2019-05-28T01:09:09.415Z,0.00
2019-05-28T01:10:09.413Z,0.00
2019-05-28T01:11:09.399Z,0.00
2019-05-28T01:12:09.498Z,0.00
2019-05-28T01:13:09.384Z,0.00
2019-05-28T01:14:09.369Z,0.00
2019-05-28T01:15:09.349Z,0.00
2019-05-28T01:16:09.388Z,0.00
2019-05-28T01:17:09.328Z,0.00
2019-05-28T01:18:09.430Z,0.00
2019-05-28T01:19:09.311Z,0.00
2019-05-28T01:20:09.298Z,0.00
2019-05-28T01:21:09.283Z,0.00
2019-05-28T01:22:09.278Z,0.00
2019-05-28T01:23:09.351Z,0.00
2019-05-28T01:24:09.257Z,0.00
2019-05-28T01:25:09.239Z,0.00
2019-05-28T01:26:09.231Z,0.00
2019-05-28T01:27:09.218Z,0.00
2019-05-28T01:28:09.205Z,0.00
2019-05-28T01:29:09.241Z,0.00
2019-05-28T01:30:09.187Z,0.00
2019-05-28T01:31:09.188Z,0.00
2019-05-28T01:32:09.168Z,0.00
2019-05-28T01:33:09.155Z,0.00
2019-05-28T01:34:09.152Z,0.00
2019-05-28T01:35:09.129Z,0.00
2019-05-28T01:36:09.117Z,0.00
2019-05-28T01:37:09.111Z,0.00
2019-05-28T01:38:09.102Z,0.00
2019-05-28T01:39:09.151Z,0.00
2019-05-28T01:40:09.080Z,0.00
2019-05-28T01:41:09.180Z,0.00
2019-05-28T01:42:09.054Z,0.00
2019-05-28T01:43:09.069Z,0.00
2019-05-28T01:44:09.119Z,0.00
2019-05-28T01:45:09.024Z,0.00
2019-05-28T01:46:09.011Z,0.00
2019-05-28T01:47:09.087Z,0.00
2019-05-28T01:48:08.992Z,0.00
2019-05-28T01:49:08.973Z,0.00
2019-05-28T01:50:08.962Z,0.00
2019-05-28T01:51:08.959Z,0.00
2019-05-28T01:52:08.971Z,0.00
2019-05-28T01:53:08.939Z,0.00
2019-05-28T01:54:08.928Z,0.00
2019-05-28T01:55:08.911Z,0.00
2019-05-28T01:56:08.900Z,0.00
2019-05-28T01:57:08.903Z,0.00
2019-05-28T01:58:08.893Z,0.00
2019-05-28T01:59:08.866Z,0.00
2019-05-28T02:00:08.859Z,0.00
2019-05-28T02:01:12.623Z,0.00
2019-05-28T02:02:08.918Z,0.00
2019-05-28T02:03:08.839Z,0.00
2019-05-28T02:04:08.808Z,0.00
2019-05-28T02:05:08.872Z,0.00
2019-05-28T02:06:08.789Z,0.00
2019-05-28T02:07:08.778Z,0.00
2019-05-28T02:08:08.854Z,0.00
2019-05-28T02:09:08.752Z,0.00
2019-05-28T02:10:08.739Z,0.00
2019-05-28T02:11:08.734Z,0.00
2019-05-28T02:12:08.721Z,0.00
2019-05-28T02:13:08.797Z,0.00
2019-05-28T02:14:08.700Z,0.00
2019-05-28T02:15:08.682Z,0.00
2019-05-28T02:16:08.679Z,0.00
2019-05-28T02:17:08.659Z,0.00
2019-05-28T02:18:08.724Z,0.00
2019-05-28T02:19:08.729Z,0.00
2019-05-28T02:20:08.632Z,0.00
2019-05-28T02:21:08.617Z,4.00
2019-05-28T02:22:08.611Z,4.00
2019-05-28T02:23:08.596Z,4.00
2019-05-28T02:24:08.699Z,4.00
2019-05-28T02:25:08.575Z,4.00
2019-05-28T02:26:08.565Z,0.00
2019-05-28T02:27:08.557Z,4.00
2019-05-28T02:28:08.544Z,4.00
2019-05-28T02:29:08.526Z,4.00
2019-05-28T02:30:08.612Z,8.00
2019-05-28T02:31:08.511Z,4.00
2019-05-28T02:32:08.495Z,8.00
2019-05-28T02:33:08.490Z,8.00
2019-05-28T02:34:08.473Z,8.00
2019-05-28T02:35:08.551Z,12.00
2019-05-28T02:36:08.454Z,8.00
2019-05-28T02:37:08.440Z,12.00
2019-05-28T02:38:08.433Z,12.00
2019-05-28T02:39:08.422Z,12.00
2019-05-28T02:40:08.407Z,16.00
2019-05-28T02:41:08.407Z,20.00
2019-05-28T02:42:08.383Z,20.00
2019-05-28T02:43:08.372Z,20.00
2019-05-28T02:44:08.365Z,28.00
2019-05-28T02:45:08.360Z,28.00
2019-05-28T02:46:08.378Z,32.00
2019-05-28T02:47:08.331Z,32.00
2019-05-28T02:48:08.321Z,36.00
2019-05-28T02:49:08.309Z,36.00
2019-05-28T02:50:08.294Z,44.00
2019-05-28T02:51:08.288Z,48.00
2019-05-28T02:52:08.362Z,52.00
2019-05-28T02:53:08.264Z,52.00
2019-05-28T02:54:08.249Z,56.00
2019-05-28T02:55:08.242Z,64.00
2019-05-28T02:56:08.229Z,68.00
2019-05-28T02:57:08.260Z,72.00
2019-05-28T02:58:08.246Z,80.00
2019-05-28T02:59:08.232Z,84.00
2019-05-28T03:00:08.187Z,88.00
2019-05-28T03:01:08.185Z,96.00
2019-05-28T03:02:08.162Z,100.00
2019-05-28T03:03:08.184Z,104.00
2019-05-28T03:04:08.146Z,112.00
2019-05-28T03:05:08.136Z,116.00
2019-05-28T03:06:08.126Z,120.00
2019-05-28T03:07:08.107Z,124.00
2019-05-28T03:08:08.101Z,132.00
2019-05-28T03:09:08.230Z,140.00
2019-05-28T03:10:08.081Z,148.00
2019-05-28T03:11:08.059Z,156.00
2019-05-28T03:12:08.048Z,164.00
2019-05-28T03:13:08.184Z,168.00
2019-05-28T03:14:08.077Z,180.00
2019-05-28T03:15:08.016Z,192.00
2019-05-28T03:16:08.024Z,200.00
2019-05-28T03:17:07.996Z,212.00
2019-05-28T03:18:07.991Z,216.00
2019-05-28T03:19:07.975Z,220.00
2019-05-28T03:20:08.049Z,224.00
2019-05-28T03:21:07.966Z,224.00
2019-05-28T03:22:07.943Z,232.00
2019-05-28T03:23:07.940Z,228.00
2019-05-28T03:24:07.918Z,240.00
2019-05-28T03:25:07.913Z,248.00
2019-05-28T03:26:08.101Z,264.00
2019-05-28T03:27:07.881Z,280.00
2019-05-28T03:28:07.889Z,300.00
2019-05-28T03:29:07.865Z,316.00
2019-05-28T03:30:07.859Z,332.00
2019-05-28T03:31:07.850Z,344.00
2019-05-28T03:32:09.358Z,356.00
2019-05-28T03:33:07.835Z,360.00
2019-05-28T03:34:07.808Z,356.00
2019-05-28T03:35:07.803Z,356.00
2019-05-28T03:36:07.785Z,348.00
2019-05-28T03:37:07.886Z,344.00
2019-05-28T03:38:07.758Z,352.00
2019-05-28T03:39:07.753Z,372.00
2019-05-28T03:40:07.737Z,388.00
2019-05-28T03:41:07.740Z,400.00
2019-05-28T03:42:07.763Z,408.00
2019-05-28T03:43:07.712Z,420.00
2019-05-28T03:44:07.698Z,444.00
2019-05-28T03:45:07.683Z,464.00
2019-05-28T03:46:07.673Z,476.00
2019-05-28T03:47:07.720Z,480.00
2019-05-28T03:48:07.647Z,476.00
2019-05-28T03:49:07.637Z,472.00
2019-05-28T03:50:07.625Z,468.00
2019-05-28T03:51:07.618Z,480.00
2019-05-28T03:52:07.607Z,492.00
2019-05-28T03:53:07.639Z,500.00
2019-05-28T03:54:07.590Z,508.00
2019-05-28T03:55:07.571Z,512.00
2019-05-28T03:56:07.560Z,520.00
2019-05-28T03:57:07.549Z,532.00
2019-05-28T03:58:07.542Z,560.00
2019-05-28T03:59:07.616Z,576.00
2019-05-28T04:00:07.514Z,600.00
2019-05-28T04:01:07.515Z,636.00
2019-05-28T04:02:22.602Z,668.00
2019-05-28T04:03:08.485Z,688.00
2019-05-28T04:04:07.476Z,696.00
2019-05-28T04:05:07.465Z,700.00
2019-05-28T04:06:07.448Z,688.00
2019-05-28T04:07:07.437Z,656.00
2019-05-28T04:08:07.555Z,628.00
2019-05-28T04:09:07.419Z,608.00
2019-05-28T04:10:07.413Z,604.00
2019-05-28T04:11:07.397Z,616.00
2019-05-28T04:12:07.382Z,636.00
2019-05-28T04:13:07.381Z,664.00
2019-05-28T04:14:07.439Z,692.00
2019-05-28T04:15:07.353Z,708.00
2019-05-28T04:16:07.344Z,740.00
2019-05-28T04:17:07.329Z,796.00
2019-05-28T04:18:07.412Z,880.00
2019-05-28T04:19:07.305Z,964.00
2019-05-28T04:20:07.297Z,1052.00
2019-05-28T04:21:07.287Z,1136.00
2019-05-28T04:22:07.279Z,1196.00
2019-05-28T04:23:07.300Z,1232.00
2019-05-28T04:24:07.254Z,1252.00
2019-05-28T04:25:07.246Z,1284.00
2019-05-28T04:26:07.243Z,1324.00
2019-05-28T04:27:07.223Z,1360.00
2019-05-28T04:28:07.211Z,1380.00
2019-05-28T04:29:07.286Z,1400.00
2019-05-28T04:30:07.185Z,1412.00
2019-05-28T04:31:07.195Z,1416.00
2019-05-28T04:32:07.181Z,1400.00
2019-05-28T04:33:07.167Z,1408.00
2019-05-28T04:34:07.230Z,1440.00
2019-05-28T04:35:07.128Z,1476.00
2019-05-28T04:36:07.121Z,1516.00
2019-05-28T04:37:07.149Z,1576.00
2019-05-28T04:38:07.104Z,1620.00
2019-05-28T04:39:07.200Z,1688.00
2019-05-28T04:40:07.082Z,1764.00
2019-05-28T04:41:07.066Z,1788.00
2019-05-28T04:42:07.061Z,1840.00
2019-05-28T04:43:07.042Z,1916.00
2019-05-28T04:44:07.037Z,2032.00
2019-05-28T04:45:07.061Z,2108.00
2019-05-28T04:46:07.005Z,2176.00
2019-05-28T04:47:08.755Z,2200.00
2019-05-28T04:48:06.988Z,2220.00
2019-05-28T04:49:06.985Z,2220.00
2019-05-28T04:50:06.991Z,2268.00
2019-05-28T04:51:06.955Z,2320.00
2019-05-28T04:52:06.942Z,2396.00
2019-05-28T04:53:06.938Z,2468.00
2019-05-28T04:54:06.922Z,2552.00
2019-05-28T04:55:06.910Z,2648.00
2019-05-28T04:56:07.023Z,2688.00
2019-05-28T04:57:06.984Z,2784.00
2019-05-28T04:58:06.879Z,2816.00
2019-05-28T04:59:06.869Z,2844.00
2019-05-28T05:00:06.856Z,2984.00
2019-05-28T05:01:06.848Z,3140.00
2019-05-28T05:02:06.948Z,3272.00
2019-05-28T05:03:06.836Z,3376.00
2019-05-28T05:04:06.811Z,3428.00
2019-05-28T05:05:06.795Z,3500.00
2019-05-28T05:06:06.797Z,3504.00
2019-05-28T05:07:06.774Z,3484.00
2019-05-28T05:08:06.805Z,3508.00
2019-05-28T05:09:06.750Z,3592.00
2019-05-28T05:10:06.747Z,3716.00
2019-05-28T05:11:06.737Z,3832.00
2019-05-28T05:12:06.721Z,4028.00
2019-05-28T05:13:06.710Z,4740.00
2019-05-28T05:14:08.270Z,4744.00
2019-05-28T05:15:06.699Z,4772.00
2019-05-28T05:16:06.682Z,5044.00
2019-05-28T05:17:06.671Z,5512.00
2019-05-28T05:18:06.670Z,5800.00
2019-05-28T05:19:06.653Z,6020.00
2019-05-28T05:20:06.634Z,5412.00
2019-05-28T05:21:06.622Z,7100.00
2019-05-28T05:22:06.626Z,7276.00
2019-05-28T05:23:06.689Z,7000.00
2019-05-28T05:24:06.588Z,6300.00
2019-05-28T05:25:06.574Z,6184.00
2019-05-28T05:26:06.565Z,6320.00
2019-05-28T05:27:06.558Z,5996.00
2019-05-28T05:28:06.587Z,6440.00
2019-05-28T05:29:06.535Z,5348.00
2019-05-28T05:30:06.592Z,5240.00
2019-05-28T05:31:06.517Z,5324.00
2019-05-28T05:32:06.499Z,5796.00
2019-05-28T05:33:19.202Z,6872.00
2019-05-28T05:34:07.470Z,6336.00
2019-05-28T05:35:06.468Z,5728.00
2019-05-28T05:36:06.471Z,5480.00
2019-05-28T05:37:06.440Z,5308.00
2019-05-28T05:38:06.440Z,5304.00
2019-05-28T05:39:06.423Z,5468.00
2019-05-28T05:40:06.414Z,5324.00
2019-05-28T05:41:06.512Z,5100.00
2019-05-28T05:42:06.392Z,4924.00
2019-05-28T05:43:06.386Z,4672.00
2019-05-28T05:44:06.401Z,5448.00
2019-05-28T05:45:07.638Z,4900.00
2019-05-28T05:46:06.368Z,5140.00
2019-05-28T05:47:06.334Z,6224.00
2019-05-28T05:48:06.325Z,6172.00
2019-05-28T05:49:06.338Z,7180.00
2019-05-28T05:50:06.296Z,6348.00
2019-05-28T05:51:06.295Z,6952.00
2019-05-28T05:52:06.274Z,6808.00
2019-05-28T05:53:06.273Z,6240.00
2019-05-28T05:54:06.345Z,7216.00
2019-05-28T05:55:06.374Z,7404.00
2019-05-28T05:56:06.233Z,7476.00
2019-05-28T05:57:06.223Z,7264.00
2019-05-28T05:58:06.211Z,7228.00
2019-05-28T05:59:06.206Z,7336.00
2019-05-28T06:00:06.190Z,7224.00
2019-05-28T06:01:06.316Z,6880.00
2019-05-28T06:02:06.162Z,6472.00
2019-05-28T06:03:06.157Z,7080.00
2019-05-28T06:04:06.147Z,7728.00
2019-05-28T06:05:06.188Z,7768.00
2019-05-28T06:06:06.201Z,6720.00
2019-05-28T06:07:06.150Z,7536.00
2019-05-28T06:08:06.116Z,5904.00
2019-05-28T06:09:06.092Z,5108.00
2019-05-28T06:10:06.085Z,5404.00
2019-05-28T06:11:06.092Z,5624.00
2019-05-28T06:12:06.057Z,6344.00
2019-05-28T06:13:06.071Z,7868.00
2019-05-28T06:14:06.037Z,9192.00
2019-05-28T06:15:06.070Z,9820.00
2019-05-28T06:16:06.131Z,10004.00
2019-05-28T06:17:06.003Z,10288.00
2019-05-28T06:18:06.006Z,10696.00
2019-05-28T06:19:05.994Z,10644.00
2019-05-28T06:20:05.965Z,10800.00
2019-05-28T06:21:14.082Z,9716.00
2019-05-28T06:22:07.024Z,9288.00
2019-05-28T06:23:05.940Z,8840.00
2019-05-28T06:24:05.922Z,8268.00
2019-05-28T06:25:05.917Z,8140.00
2019-05-28T06:26:05.904Z,7808.00
2019-05-28T06:27:05.893Z,7528.00
2019-05-28T06:28:05.969Z,7340.00
2019-05-28T06:29:05.869Z,7496.00
2019-05-28T06:30:05.896Z,7668.00
2019-05-28T06:31:05.849Z,7624.00
2019-05-28T06:32:05.848Z,7504.00
2019-05-28T06:33:05.936Z,7416.00
2019-05-28T06:34:05.811Z,7296.00
2019-05-28T06:35:05.798Z,7428.00
2019-05-28T06:36:05.792Z,7512.00
2019-05-28T06:37:05.800Z,7376.00
2019-05-28T06:38:05.767Z,7104.00
2019-05-28T06:39:05.780Z,6776.00
2019-05-28T06:40:05.750Z,6704.00
2019-05-28T06:41:05.739Z,6820.00
2019-05-28T06:42:05.761Z,6956.00
2019-05-28T06:43:05.729Z,7184.00
2019-05-28T06:44:05.724Z,7304.00
2019-05-28T06:45:05.727Z,7560.00
2019-05-28T06:46:05.690Z,7792.00
2019-05-28T06:47:05.665Z,7780.00
2019-05-28T06:48:05.683Z,7372.00
2019-05-28T06:49:05.679Z,6960.00
2019-05-28T06:50:05.641Z,6752.00
2019-05-28T06:51:05.635Z,7032.00
2019-05-28T06:52:05.615Z,8304.00
2019-05-28T06:53:05.600Z,8108.00
2019-05-28T06:54:05.591Z,7856.00
2019-05-28T06:55:05.610Z,7240.00
2019-05-28T06:56:05.565Z,7268.00
2019-05-28T06:57:21.813Z,7860.00
2019-05-28T06:58:06.561Z,7608.00
2019-05-28T06:59:05.682Z,7460.00
2019-05-28T07:00:05.523Z,7212.00
2019-05-28T07:01:05.760Z,7360.00
2019-05-28T07:02:05.502Z,7588.00
2019-05-28T07:03:05.498Z,7704.00
2019-05-28T07:04:13.732Z,7688.00
2019-05-28T07:05:06.468Z,7888.00
2019-05-28T07:06:07.839Z,8112.00
2019-05-28T07:07:05.455Z,8036.00
2019-05-28T07:08:05.431Z,7940.00
2019-05-28T07:09:05.422Z,7964.00
2019-05-28T07:10:05.408Z,8048.00
2019-05-28T07:11:05.395Z,8040.00
2019-05-28T07:12:05.401Z,7948.00
2019-05-28T07:13:05.378Z,7780.00
2019-05-28T07:14:05.379Z,7876.00
2019-05-28T07:15:05.366Z,8264.00
2019-05-28T07:16:05.339Z,8400.00
2019-05-28T07:17:05.455Z,8776.00
2019-05-28T07:18:05.348Z,8704.00
2019-05-28T07:19:23.075Z,8128.00
2019-05-28T07:20:06.337Z,7808.00
2019-05-28T07:21:05.444Z,7464.00
2019-05-28T07:22:05.284Z,7276.00
2019-05-28T07:23:05.267Z,7256.00
2019-05-28T07:24:05.308Z,7444.00
2019-05-28T07:25:05.244Z,7616.00
2019-05-28T07:26:05.230Z,7880.00
2019-05-28T07:27:05.308Z,8192.00
2019-05-28T07:28:11.225Z,8532.00
2019-05-28T07:29:06.201Z,8756.00
2019-05-28T07:30:05.191Z,8900.00
2019-05-28T07:31:05.177Z,9116.00
2019-05-28T07:32:05.835Z,9236.00
2019-05-28T07:33:05.466Z,9436.00
2019-05-28T07:34:05.832Z,9616.00
2019-05-28T07:35:05.838Z,9912.00
2019-05-28T07:36:05.842Z,10108.00
2019-05-28T07:37:05.115Z,10280.00
2019-05-28T07:38:05.186Z,10524.00
2019-05-28T07:39:05.119Z,10816.00
2019-05-28T07:40:05.079Z,10924.00
2019-05-28T07:41:05.105Z,10932.00
2019-05-28T07:42:05.062Z,10916.00
2019-05-28T07:43:05.057Z,10816.00
2019-05-28T07:44:05.121Z,10672.00
2019-05-28T07:45:05.021Z,10504.00
2019-05-28T07:46:05.007Z,10440.00
2019-05-28T07:47:04.995Z,10276.00
2019-05-28T07:48:04.989Z,10292.00
2019-05-28T07:49:05.064Z,10344.00
2019-05-28T07:50:04.969Z,10552.00
2019-05-28T07:51:04.958Z,10884.00
2019-05-28T07:52:04.977Z,11264.00
2019-05-28T07:53:04.936Z,11544.00
2019-05-28T07:54:05.030Z,11880.00
2019-05-28T07:55:04.912Z,12128.00
2019-05-28T07:56:04.950Z,12552.00
2019-05-28T07:57:04.895Z,12860.00
2019-05-28T07:58:04.881Z,13148.00
2019-05-28T07:59:04.866Z,13152.00
2019-05-28T08:00:05.813Z,13376.00
2019-05-28T08:01:04.842Z,13584.00
2019-05-28T08:02:04.839Z,13724.00
2019-05-28T08:03:04.820Z,13760.00
2019-05-28T08:04:04.830Z,13908.00
2019-05-28T08:05:04.814Z,13776.00
2019-05-28T08:06:04.844Z,13556.00
2019-05-28T08:07:04.778Z,13692.00
2019-05-28T08:08:04.793Z,12916.00
2019-05-28T08:09:04.758Z,14088.00
2019-05-28T08:10:04.840Z,14164.00
2019-05-28T08:11:04.734Z,14180.00
2019-05-28T08:12:04.732Z,13044.00
2019-05-28T08:13:04.716Z,8160.00
2019-05-28T08:14:04.702Z,7780.00
2019-05-28T08:15:04.690Z,8156.00
2019-05-28T08:16:17.588Z,8480.00
2019-05-28T08:17:05.690Z,6032.00
2019-05-28T08:18:04.662Z,5768.00
2019-05-28T08:19:04.648Z,5088.00
2019-05-28T08:20:04.641Z,4812.00
2019-05-28T08:21:04.716Z,5268.00
2019-05-28T08:22:04.621Z,6340.00
2019-05-28T08:23:04.605Z,8124.00
2019-05-28T08:24:04.592Z,9592.00
2019-05-28T08:25:04.587Z,10568.00
2019-05-28T08:26:04.660Z,12716.00
2019-05-28T08:27:04.563Z,11856.00
2019-05-28T08:28:19.233Z,9956.00
2019-05-28T08:29:05.537Z,8920.00
2019-05-28T08:30:04.535Z,6456.00
2019-05-28T08:31:14.651Z,5044.00
2019-05-28T08:32:05.593Z,6256.00
2019-05-28T08:33:04.498Z,7200.00
2019-05-28T08:34:04.489Z,8176.00
2019-05-28T08:35:06.194Z,9528.00
2019-05-28T08:36:04.471Z,9388.00
2019-05-28T08:37:06.509Z,8624.00
2019-05-28T08:38:04.528Z,8796.00
2019-05-28T08:39:04.430Z,8368.00
2019-05-28T08:40:04.430Z,7808.00
2019-05-28T08:41:04.416Z,7624.00
2019-05-28T08:42:04.400Z,7240.00
2019-05-28T08:43:04.475Z,6912.00
2019-05-28T08:44:04.377Z,7020.00
2019-05-28T08:45:04.362Z,7208.00
2019-05-28T08:46:04.353Z,7524.00
2019-05-28T08:47:04.346Z,7540.00
2019-05-28T08:48:04.436Z,7456.00
2019-05-28T08:49:04.429Z,7492.00
2019-05-28T08:50:04.317Z,7592.00
2019-05-28T08:51:04.300Z,7560.00
2019-05-28T08:52:04.315Z,7684.00
2019-05-28T08:53:04.426Z,7792.00
2019-05-28T08:54:04.264Z,7812.00
2019-05-28T08:55:04.345Z,8112.00
2019-05-28T08:56:04.249Z,8536.00
2019-05-28T08:57:04.258Z,8136.00
2019-05-28T08:58:04.301Z,8080.00
2019-05-28T08:59:04.211Z,8832.00
2019-05-28T09:00:04.304Z,9116.00
2019-05-28T09:01:04.231Z,8612.00
2019-05-28T09:02:04.184Z,9084.00
2019-05-28T09:03:05.242Z,9752.00
2019-05-28T09:04:04.171Z,11112.00
2019-05-28T09:05:24.629Z,11348.00
2019-05-28T09:06:05.149Z,11440.00
2019-05-28T09:07:04.125Z,12732.00
2019-05-28T09:08:04.129Z,14084.00
2019-05-28T09:09:04.114Z,13336.00
2019-05-28T09:10:04.090Z,11276.00
2019-05-28T09:11:04.170Z,11780.00
2019-05-28T09:12:04.083Z,14540.00
2019-05-28T09:13:04.058Z,15384.00
2019-05-28T09:14:04.058Z,14000.00
2019-05-28T09:15:04.043Z,13888.00
2019-05-28T09:16:04.142Z,14488.00
2019-05-28T09:17:04.776Z,13692.00
2019-05-28T09:18:04.238Z,12328.00
2019-05-28T09:19:03.995Z,11600.00
2019-05-28T09:20:03.981Z,9932.00
2019-05-28T09:21:03.996Z,12920.00
2019-05-28T09:22:04.047Z,12800.00
2019-05-28T09:23:03.966Z,12280.00
2019-05-28T09:24:03.943Z,12164.00
2019-05-28T09:25:03.928Z,12496.00
2019-05-28T09:26:03.949Z,15680.00
2019-05-28T09:27:03.909Z,19264.00
2019-05-28T09:28:03.983Z,19264.00
2019-05-28T09:29:03.885Z,19616.00
2019-05-28T09:30:03.870Z,19840.00
2019-05-28T09:31:03.877Z,19872.00
2019-05-28T09:32:03.863Z,17088.00
2019-05-28T09:33:03.949Z,15004.00
2019-05-28T09:34:03.831Z,14836.00
2019-05-28T09:35:03.820Z,15084.00
2019-05-28T09:36:08.734Z,14792.00
2019-05-28T09:37:04.792Z,16008.00
2019-05-28T09:38:03.907Z,19712.00
2019-05-28T09:39:03.782Z,23552.00
2019-05-28T09:40:03.773Z,27872.00
2019-05-28T09:41:05.988Z,15608.00
2019-05-28T09:42:03.746Z,23104.00
2019-05-28T09:43:03.823Z,26016.00
2019-05-28T09:44:03.718Z,29376.00
2019-05-28T09:45:21.298Z,26368.00
2019-05-28T09:46:04.699Z,21184.00
2019-05-28T09:47:03.692Z,18368.00
2019-05-28T09:48:03.749Z,16480.00
2019-05-28T09:49:03.675Z,15152.00
2019-05-28T09:50:03.754Z,13940.00
2019-05-28T09:51:03.648Z,13036.00
2019-05-28T09:52:03.630Z,11804.00
2019-05-28T09:53:03.710Z,11600.00
2019-05-28T09:54:03.619Z,11588.00
2019-05-28T09:55:03.598Z,11616.00
2019-05-28T09:56:03.690Z,11368.00
2019-05-28T09:57:03.592Z,11760.00
2019-05-28T09:58:03.571Z,13152.00
2019-05-28T09:59:04.479Z,14816.00
2019-05-28T10:00:03.633Z,20128.00
2019-05-28T10:01:03.534Z,22304.00
2019-05-28T10:02:03.529Z,24000.00
2019-05-28T10:03:04.267Z,25728.00
2019-05-28T10:04:03.661Z,24896.00
2019-05-28T10:05:03.510Z,25408.00
2019-05-28T10:06:16.189Z,27488.00
2019-05-28T10:07:04.488Z,32160.00
2019-05-28T10:08:03.456Z,32032.00
2019-05-28T10:09:03.538Z,33696.00
2019-05-28T10:10:03.473Z,37312.00
2019-05-28T10:11:03.522Z,38240.00
2019-05-28T10:12:03.569Z,37280.00
2019-05-28T10:13:03.403Z,38432.00
2019-05-28T10:14:03.397Z,40384.00
2019-05-28T10:15:03.399Z,39552.00
2019-05-28T10:16:03.448Z,40160.00
2019-05-28T10:17:03.379Z,35232.00
2019-05-28T10:18:03.387Z,34528.00
2019-05-28T10:19:03.429Z,32896.00
2019-05-28T10:20:03.334Z,33568.00
2019-05-28T10:21:17.893Z,38144.00
2019-05-28T10:22:04.313Z,43360.00
2019-05-28T10:23:03.306Z,45440.00
2019-05-28T10:24:03.285Z,44960.00
2019-05-28T10:25:03.278Z,48416.00
2019-05-28T10:26:03.269Z,47648.00
2019-05-28T10:27:03.273Z,43744.00
2019-05-28T10:28:03.245Z,43680.00
2019-05-28T10:29:03.233Z,38080.00
2019-05-28T10:30:03.225Z,37024.00
2019-05-28T10:31:03.314Z,37632.00
2019-05-28T10:32:03.305Z,37056.00
2019-05-28T10:33:03.194Z,34944.00
2019-05-28T10:34:03.183Z,39264.00
2019-05-28T10:35:04.424Z,41504.00
2019-05-28T10:36:03.165Z,27936.00
2019-05-28T10:37:03.155Z,46464.00
2019-05-28T10:38:03.293Z,52704.00
2019-05-28T10:39:03.133Z,53920.00
2019-05-28T10:40:03.118Z,57184.00
2019-05-28T10:41:03.108Z,39712.00
2019-05-28T10:42:03.117Z,54208.00
2019-05-28T10:43:03.179Z,60128.00
2019-05-28T10:44:03.083Z,60768.00
2019-05-28T10:45:03.068Z,21792.00
2019-05-28T10:46:03.077Z,45824.00
2019-05-28T10:47:03.050Z,9752.00
2019-05-28T10:48:03.152Z,9036.00
2019-05-28T10:49:03.026Z,8240.00
2019-05-28T10:50:03.017Z,8048.00
2019-05-28T10:51:03.007Z,10108.00
2019-05-28T10:52:02.998Z,48896.00
2019-05-28T10:53:03.885Z,12080.00
2019-05-28T10:54:03.060Z,39648.00
2019-05-28T10:55:03.069Z,35168.00
2019-05-28T10:56:03.040Z,44032.00
2019-05-28T10:57:02.939Z,46752.00
2019-05-28T10:58:02.939Z,38048.00
2019-05-28T10:59:02.931Z,12272.00
2019-05-28T11:00:03.855Z,9852.00
2019-05-28T11:01:02.899Z,7708.00
2019-05-28T11:02:02.887Z,6588.00
2019-05-28T11:03:02.882Z,6128.00
2019-05-28T11:04:02.875Z,6256.00
2019-05-28T11:05:02.874Z,7276.00
2019-05-28T11:06:02.849Z,8988.00
2019-05-28T11:07:02.844Z,12644.00
2019-05-28T11:08:02.882Z,16412.00
2019-05-28T11:09:02.912Z,15072.00
2019-05-28T11:10:02.804Z,17472.00
2019-05-28T11:11:02.789Z,10724.00
2019-05-28T11:12:02.781Z,8912.00
2019-05-28T11:13:02.769Z,9172.00
2019-05-28T11:14:02.760Z,9612.00
2019-05-28T11:15:02.837Z,12328.00
2019-05-28T11:16:02.733Z,13152.00
2019-05-28T11:17:02.722Z,13608.00
2019-05-28T11:18:02.757Z,15204.00
2019-05-28T11:19:02.705Z,15380.00
2019-05-28T11:20:02.750Z,15572.00
2019-05-28T11:21:08.898Z,15364.00
2019-05-28T11:22:03.727Z,14856.00
2019-05-28T11:23:02.657Z,13232.00
2019-05-28T11:24:02.656Z,10596.00
2019-05-28T11:25:02.639Z,9252.00
2019-05-28T11:26:02.640Z,8188.00
2019-05-28T11:27:02.734Z,7240.00
2019-05-28T11:28:02.667Z,6048.00
2019-05-28T11:29:02.593Z,5348.00
2019-05-28T11:30:02.584Z,5644.00
2019-05-28T11:31:02.755Z,5748.00
2019-05-28T11:32:02.578Z,4956.00
2019-05-28T11:33:02.553Z,4656.00
2019-05-28T11:34:02.551Z,4832.00
2019-05-28T11:35:02.550Z,5312.00
2019-05-28T11:36:02.936Z,5776.00
2019-05-28T11:37:09.626Z,6292.00
2019-05-28T11:38:03.509Z,7392.00
2019-05-28T11:39:02.485Z,8052.00
2019-05-28T11:40:02.488Z,8716.00
2019-05-28T11:41:02.463Z,9148.00
2019-05-28T11:42:02.544Z,9032.00
2019-05-28T11:43:02.443Z,8784.00
2019-05-28T11:44:02.426Z,8640.00
2019-05-28T11:45:02.719Z,8644.00
2019-05-28T11:46:02.410Z,8572.00
2019-05-28T11:47:02.442Z,8632.00
2019-05-28T11:48:02.463Z,9112.00
2019-05-28T11:49:02.378Z,9944.00
2019-05-28T11:50:02.696Z,10436.00
2019-05-28T11:51:02.356Z,10380.00
2019-05-28T11:52:02.417Z,10248.00
2019-05-28T11:53:02.482Z,9948.00
2019-05-28T11:54:02.386Z,9124.00
2019-05-28T11:55:02.314Z,8464.00
2019-05-28T11:56:02.311Z,7676.00
2019-05-28T11:57:02.284Z,6780.00
2019-05-28T11:58:02.362Z,6076.00
2019-05-28T11:59:02.261Z,5840.00
2019-05-28T12:00:02.256Z,6080.00
2019-05-28T12:01:02.240Z,6180.00
2019-05-28T12:02:04.991Z,6760.00
2019-05-28T12:03:02.328Z,7504.00
2019-05-28T12:04:02.207Z,8524.00
2019-05-28T12:05:02.334Z,9488.00
2019-05-28T12:06:02.198Z,12108.00
2019-05-28T12:07:02.173Z,12368.00
2019-05-28T12:08:02.300Z,13164.00
2019-05-28T12:09:02.156Z,11040.00
2019-05-28T12:10:02.518Z,10276.00
2019-05-28T12:11:02.248Z,9616.00
2019-05-28T12:12:02.123Z,9572.00
2019-05-28T12:13:02.111Z,10596.00
2019-05-28T12:14:02.105Z,12644.00
2019-05-28T12:15:02.164Z,13368.00
2019-05-28T12:16:02.163Z,13984.00
2019-05-28T12:17:02.063Z,12288.00
2019-05-28T12:18:02.221Z,13220.00